Time;durP1;ratioP1;P1;durP2;ratioP2;P2;SDS_P1;SDS_P2;PMS_P1;PMS_P2;Temp;Humidity;BMP_temperature;BMP_pressure;BME280_temperature;BME280_humidity;BME280_pressure;Samples;Min_cycle;Max_cycle;Signal;HPM_P1;HPM_P2
2022/10/06 00:03:23;;;;;;;3.35;2.45;;;;;;;16.07;84.79;100751.97;10487186;28;20063;-62
2022/10/06 00:08:25;;;;;;;3.55;3.00;;;;;;;16.02;84.69;100740.00;10502872;28;20054;-62
2022/10/06 00:13:28;;;;;;;5.60;3.15;;;;;;;15.95;85.61;100749.66;10502705;28;20048;-62
2022/10/06 00:18:29;;;;;;;2.63;2.42;;;;;;;15.88;85.79;100757.41;10491243;28;20694;-64
2022/10/06 00:23:31;;;;;;;5.35;2.67;;;;;;;15.86;85.95;100754.88;10499499;28;20054;-62
2022/10/06 00:28:33;;;;;;;4.90;2.67;;;;;;;15.84;86.02;100759.56;10501803;28;20043;-62
2022/10/06 00:33:36;;;;;;;2.40;2.00;;;;;;;15.79;87.47;100758.28;10498491;28;20200;-62
2022/10/06 00:38:37;;;;;;;5.05;2.58;;;;;;;15.87;86.68;100775.38;10504562;28;20046;-62
2022/10/06 00:43:57;;;;;;;4.35;3.13;;;;;;;15.95;86.18;100781.84;10501487;28;20539;-63
2022/10/06 00:49:28;;;;;;;3.83;2.90;;;;;;;16.01;85.96;100792.84;10498939;28;20054;-62
2022/10/06 00:54:32;;;;;;;3.88;2.28;;;;;;;16.08;85.03;100806.56;10493372;28;20052;-62
2022/10/06 00:59:35;;;;;;;3.97;2.97;;;;;;;16.13;84.50;100809.63;10500823;28;20039;-64
2022/10/06 01:04:41;;;;;;;3.38;2.33;;;;;;;16.21;84.35;100817.81;10495119;28;20055;-62
2022/10/06 01:09:42;;;;;;;3.03;2.53;;;;;;;16.21;84.08;100819.66;10481664;28;20052;-63
2022/10/06 01:14:44;;;;;;;4.55;2.97;;;;;;;16.23;84.45;100820.38;10504206;28;20693;-63
2022/10/06 01:19:56;;;;;;;3.88;2.53;;;;;;;16.31;84.08;100827.69;10514189;28;20131;-61
2022/10/06 01:24:57;;;;;;;2.88;2.67;;;;;;;16.33;83.82;100831.06;10503751;28;20044;-61
2022/10/06 01:29:59;;;;;;;3.72;2.58;;;;;;;16.37;83.51;100838.66;10498903;22;20135;-62
2022/10/06 01:35:00;;;;;;;4.82;2.50;;;;;;;16.48;83.13;100850.22;10460640;28;20056;-62
2022/10/06 01:40:02;;;;;;;3.38;2.30;;;;;;;16.54;82.92;100850.50;10463067;28;20048;-62
2022/10/06 01:45:04;;;;;;;4.38;2.42;;;;;;;16.59;82.37;100858.13;10457115;28;20047;-64
2022/10/06 01:50:07;;;;;;;5.38;2.60;;;;;;;16.55;82.14;100878.22;10461319;28;20437;-62
2022/10/06 01:55:08;;;;;;;3.40;2.42;;;;;;;16.46;83.18;100884.47;10457172;28;20044;-62
2022/10/06 02:00:10;;;;;;;4.53;2.67;;;;;;;16.34;83.77;100894.56;10465882;28;20044;-62
2022/10/06 02:05:13;;;;;;;3.10;2.80;;;;;;;16.37;85.18;100902.31;10460625;28;20048;-62
2022/10/06 02:10:14;;;;;;;3.42;2.55;;;;;;;16.39;84.29;100905.69;10482189;28;20052;-62
2022/10/06 02:15:16;;;;;;;5.13;2.60;;;;;;;16.48;84.66;100914.72;10498223;28;20055;-62
2022/10/06 02:20:17;;;;;;;4.35;3.25;;;;;;;16.47;84.50;100935.38;10506712;28;20460;-62
2022/10/06 02:25:18;;;;;;;6.28;3.08;;;;;;;16.43;85.74;100952.78;10501730;28;20043;-62
2022/10/06 02:30:20;;;;;;;4.60;3.25;;;;;;;16.47;84.60;100956.88;10497575;28;20044;-62
2022/10/06 02:35:21;;;;;;;4.65;2.15;;;;;;;16.28;85.98;100957.75;10498610;28;20058;-62
2022/10/06 02:40:22;;;;;;;3.65;2.13;;;;;;;16.41;86.79;100973.59;10495766;28;20051;-62
2022/10/06 02:45:24;;;;;;;6.15;2.83;;;;;;;16.46;87.36;100976.66;10498680;28;20443;-62
2022/10/06 02:50:25;;;;;;;2.78;2.53;;;;;;;16.54;87.09;100989.38;10501406;28;20408;-62
2022/10/06 02:55:26;;;;;;;3.63;2.65;;;;;;;16.41;87.09;100995.06;10498070;28;20048;-62
2022/10/06 03:00:28;;;;;;;3.58;2.10;;;;;;;16.49;87.00;100997.88;10500687;28;20065;-62
2022/10/06 03:05:29;;;;;;;3.30;1.48;;;;;;;16.48;85.10;101006.94;10500388;28;20054;-62
2022/10/06 03:10:30;;;;;;;2.20;1.27;;;;;;;16.41;85.40;101020.09;10505413;28;20048;-62
2022/10/06 03:15:32;;;;;;;2.60;1.00;;;;;;;16.34;83.80;101020.81;10487931;28;20044;-62
2022/10/06 03:20:33;;;;;;;2.17;0.70;;;;;;;16.38;82.26;101041.03;10502122;28;20055;-62
2022/10/06 03:25:35;;;;;;;2.90;0.60;;;;;;;16.38;82.54;101043.72;10485623;28;20039;-62
2022/10/06 03:30:36;;;;;;;1.83;0.60;;;;;;;16.46;82.16;101056.44;10501735;28;20058;-62
2022/10/06 03:35:37;;;;;;;2.08;0.60;;;;;;;16.51;81.06;101065.75;10500996;28;20058;-64
2022/10/06 03:40:39;;;;;;;1.25;0.50;;;;;;;16.47;77.99;101064.38;10493304;28;20055;-62
2022/10/06 03:45:40;;;;;;;0.82;0.32;;;;;;;16.44;76.99;101076.25;10492020;28;20067;-62
2022/10/06 03:50:42;;;;;;;2.00;0.30;;;;;;;16.38;75.83;101092.09;10497177;28;20619;-62
2022/10/06 03:55:44;;;;;;;1.80;0.30;;;;;;;16.36;73.74;101104.78;10500502;28;20044;-62
2022/10/06 04:00:45;;;;;;;1.08;0.30;;;;;;;16.31;72.99;101109.75;10508383;28;20063;-62
2022/10/06 04:05:57;;;;;;;1.85;0.30;;;;;;;16.35;72.45;101116.53;10504729;28;20123;-62
2022/10/06 04:11:07;;;;;;;1.48;0.25;;;;;;;16.35;76.04;101116.53;10509312;28;20082;-61
2022/10/06 04:16:17;;;;;;;1.23;0.60;;;;;;;16.38;73.48;101124.34;10505511;28;20044;-62
2022/10/06 04:21:20;;;;;;;1.40;0.30;;;;;;;16.40;72.60;101138.47;10499614;28;20047;-61
2022/10/06 04:26:23;;;;;;;5.32;0.50;;;;;;;16.34;71.79;101144.41;10500785;28;20158;-61
2022/10/06 04:31:28;;;;;;;2.97;0.20;;;;;;;16.32;72.22;101157.09;10503095;28;20048;-62
2022/10/06 04:36:37;;;;;;;2.17;0.25;;;;;;;16.35;73.12;101151.44;10500385;28;20749;-61
2022/10/06 04:41:40;;;;;;;1.60;0.28;;;;;;;16.31;71.43;101166.16;10480164;28;20059;-62
2022/10/06 04:46:41;;;;;;;2.08;0.47;;;;;;;16.20;71.30;101167.16;10463602;28;20051;-62
2022/10/06 04:51:46;;;;;;;2.17;0.30;;;;;;;16.11;71.75;101187.63;10477120;28;20047;-62
2022/10/06 04:56:47;;;;;;;5.72;0.63;;;;;;;16.17;72.24;101195.13;10478327;28;20582;-64
2022/10/06 05:01:48;;;;;;;2.25;0.30;;;;;;;16.12;70.29;101196.50;10478533;28;20062;-63
2022/10/06 05:06:50;;;;;;;2.28;0.30;;;;;;;16.03;70.63;101203.53;10477645;28;20056;-61
2022/10/06 05:11:51;;;;;;;7.40;0.85;;;;;;;15.93;69.08;101210.72;10475831;28;20051;-65
2022/10/06 05:16:52;;;;;;;1.33;0.20;;;;;;;15.81;72.04;101224.25;10471093;28;20740;-61
2022/10/06 05:21:54;;;;;;;4.20;0.40;;;;;;;15.72;70.27;101225.00;10478117;28;20200;-62
2022/10/06 05:26:55;;;;;;;2.45;0.50;;;;;;;15.61;72.06;101235.81;10476157;28;20308;-62
2022/10/06 05:32:02;;;;;;;3.00;1.30;;;;;;;15.60;72.61;101247.53;10460603;28;20078;-62
2022/10/06 05:37:03;;;;;;;2.30;0.40;;;;;;;15.56;73.26;101261.22;10459096;28;20059;-62
2022/10/06 05:42:05;;;;;;;1.70;0.70;;;;;;;15.52;73.09;101281.25;10470625;28;20062;-64
2022/10/06 05:47:06;;;;;;;2.60;0.70;;;;;;;15.52;72.89;101286.63;10465983;28;20082;-62
2022/10/06 05:52:07;;;;;;;5.47;0.57;;;;;;;15.49;71.79;101284.19;10470836;28;20044;-62
2022/10/06 05:57:09;;;;;;;3.60;0.80;;;;;;;15.51;71.25;101306.38;10473586;28;22029;-62
2022/10/06 06:02:10;;;;;;;2.60;0.70;;;;;;;15.43;69.86;101306.16;10475580;28;20131;-63
2022/10/06 06:07:12;;;;;;;3.20;0.95;;;;;;;15.26;69.53;101314.78;10469536;28;20056;-62
2022/10/06 06:12:15;;;;;;;4.45;0.93;;;;;;;15.10;68.94;101336.66;10469188;28;20063;-61
2022/10/06 06:17:16;;;;;;;4.20;0.80;;;;;;;15.11;68.33;101352.63;10472291;28;20047;-62
2022/10/06 06:22:18;;;;;;;5.32;0.90;;;;;;;15.16;70.85;101363.84;10468498;28;20278;-63
2022/10/06 06:27:19;;;;;;;3.40;0.80;;;;;;;15.24;69.00;101365.88;10471681;28;20086;-63
2022/10/06 06:32:21;;;;;;;3.10;0.70;;;;;;;15.41;67.39;101369.84;10472367;28;20194;-63
2022/10/06 06:37:22;;;;;;;3.63;1.17;;;;;;;15.54;68.18;101378.56;10470256;28;20051;-63
2022/10/06 06:42:25;;;;;;;1.65;0.75;;;;;;;15.73;67.48;101387.75;10471183;28;20048;-63
2022/10/06 06:47:26;;;;;;;5.32;0.95;;;;;;;15.73;66.59;101412.78;10474172;28;20043;-63
2022/10/06 06:52:28;;;;;;;3.75;1.02;;;;;;;15.88;69.00;101420.53;10483195;28;20059;-62
2022/10/06 06:57:29;;;;;;;3.83;0.80;;;;;;;15.99;65.55;101430.34;10464503;28;20054;-62
2022/10/06 07:02:30;;;;;;;3.67;0.60;;;;;;;16.06;66.29;101444.97;10479314;28;20514;-63
2022/10/06 07:07:32;;;;;;;3.70;1.35;;;;;;;16.20;62.95;101436.59;10486395;28;20063;-62
2022/10/06 07:12:33;;;;;;;3.58;0.90;;;;;;;16.29;65.04;101445.72;10477739;28;20056;-63
2022/10/06 07:28:15;;;;;;;5.85;1.17;;;;;;;16.66;62.33;101479.28;10441223;28;20066;-62
2022/10/06 07:33:17;;;;;;;7.28;1.05;;;;;;;16.74;58.28;101491.09;10442762;28;20124;-62
2022/10/06 07:38:23;;;;;;;2.47;0.73;;;;;;;16.73;59.69;101493.91;10446065;28;20048;-63
2022/10/06 07:43:24;;;;;;;3.65;1.85;;;;;;;16.70;55.97;101483.44;10446619;28;20075;-63
2022/10/06 07:48:25;;;;;;;3.70;0.93;;;;;;;17.14;58.53;101498.38;10442029;28;20063;-62
2022/10/06 07:53:27;;;;;;;5.63;0.88;;;;;;;17.33;54.95;101503.97;10442613;28;20051;-62
2022/10/06 07:58:28;;;;;;;4.05;0.93;;;;;;;17.39;55.62;101504.25;10434349;28;20520;-63
2022/10/06 08:03:31;;;;;;;3.58;1.20;;;;;;;17.47;53.83;101514.31;10444368;28;20615;-61
2022/10/06 08:08:36;;;;;;;7.07;0.90;;;;;;;17.98;54.89;101523.22;10447317;28;20056;-61
2022/10/06 08:13:41;;;;;;;3.08;0.95;;;;;;;17.91;52.51;101522.94;10441676;28;20055;-60
2022/10/06 08:18:48;;;;;;;5.88;1.10;;;;;;;17.83;52.45;101530.81;10458175;28;20059;-61
2022/10/06 08:23:51;;;;;;;7.38;1.27;;;;;;;17.67;52.64;101548.38;10452684;28;20056;-61
2022/10/06 08:28:56;;;;;;;3.65;0.95;;;;;;;17.82;53.12;101551.53;10444572;28;20048;-62
2022/10/06 08:33:57;;;;;;;3.45;0.98;;;;;;;18.11;50.72;101549.88;10457432;28;20608;-62
2022/10/06 08:38:59;;;;;;;5.10;1.63;;;;;;;18.00;51.09;101564.34;10471351;28;20096;-62
2022/10/06 08:44:06;;;;;;;2.55;0.93;;;;;;;18.45;50.04;101565.59;10473038;28;20055;-62
2022/10/06 08:49:17;;;;;;;5.38;0.85;;;;;;;18.74;48.84;101565.59;10463613;28;20039;-63
2022/10/06 08:54:39;;;;;;;4.57;0.90;;;;;;;18.88;47.43;101577.78;10472854;28;20054;-62
2022/10/06 08:59:45;;;;;;;4.88;1.00;;;;;;;19.46;45.51;101584.81;10472711;28;20066;-65
2022/10/06 09:04:48;;;;;;;2.80;0.98;;;;;;;19.20;46.61;101581.94;10473823;28;20082;-63
2022/10/06 09:10:17;;;;;;;4.97;1.40;;;;;;;19.40;46.46;101586.28;10458493;28;20059;-61
2022/10/06 09:15:26;;;;;;;6.75;1.20;;;;;;;19.72;44.04;101584.97;10449436;28;20051;-63
2022/10/06 09:20:38;;;;;;;4.45;1.27;;;;;;;20.37;45.27;101592.09;10457188;28;20044;-64
2022/10/06 09:25:39;;;;;;;4.63;1.30;;;;;;;20.65;41.62;101602.78;10467480;28;20040;-62
2022/10/06 09:30:42;;;;;;;5.68;1.30;;;;;;;21.06;41.97;101594.97;10470596;28;20452;-62
2022/10/06 09:36:10;;;;;;;5.93;1.73;;;;;;;21.05;41.17;101590.59;10451987;28;20503;-63
2022/10/06 09:41:12;;;;;;;5.28;1.55;;;;;;;21.57;39.61;101591.53;10472070;28;20036;-64
2022/10/06 09:46:20;;;;;;;5.05;0.98;;;;;;;21.80;37.23;101598.06;10456380;28;20043;-62
2022/10/06 09:51:22;;;;;;;3.90;1.50;;;;;;;23.14;37.03;101598.81;10463728;28;20048;-64
2022/10/06 09:56:25;;;;;;;4.90;0.90;;;;;;;25.50;32.76;101597.47;10470208;28;20051;-64
2022/10/06 10:01:28;;;;;;;;;;;;;;;27.75;29.33;101595.19;10456058;28;20926;-64
2022/10/06 10:06:30;;;;;;;;;;;;;;;28.34;27.83;101593.66;10465110;28;19928;-64
2022/10/06 10:16:51;;;;;;;2.85;0.73;;;;;;;26.89;29.41;101585.44;10470030;28;20058;-64
2022/10/06 10:21:56;;;;;;;5.25;1.02;;;;;;;26.19;30.48;101585.28;10471692;28;20040;-64
2022/10/06 10:27:13;;;;;;;3.67;1.05;;;;;;;28.15;27.76;101587.97;10466903;28;20040;-65
2022/10/06 10:32:38;;;;;;;3.95;1.08;;;;;;;28.95;27.63;101592.59;10468061;28;20052;-64
2022/10/06 10:37:45;;;;;;;5.13;1.23;;;;;;;32.59;22.08;101588.06;10429625;28;20054;-65
2022/10/06 10:43:04;;;;;;;4.38;0.77;;;;;;;32.64;22.11;101590.94;10429348;28;20516;-65
2022/10/06 10:48:17;;;;;;;2.80;0.98;;;;;;;34.49;19.67;101605.78;10421822;28;20055;-66
2022/10/06 10:53:42;;;;;;;3.58;0.85;;;;;;;36.75;17.37;101592.94;10423873;28;20070;-65
2022/10/06 10:58:46;;;;;;;4.60;1.55;;;;;;;37.79;17.16;101589.53;10456592;28;20047;-66
2022/10/06 11:03:55;;;;;;;6.07;1.20;;;;;;;38.41;15.39;101595.19;10472670;28;20154;-66
2022/10/06 11:09:04;;;;;;;4.68;1.05;;;;;;;38.32;14.44;101598.50;10480005;28;20052;-66
2022/10/06 11:14:25;;;;;;;1.95;0.50;;;;;;;38.76;15.53;101590.69;10476594;28;20104;-65
2022/10/06 11:20:03;;;;;;;3.42;0.82;;;;;;;39.41;14.51;101585.19;10474479;28;20055;-66
2022/10/06 11:25:39;;;;;;;4.22;1.00;;;;;;;38.69;15.35;101580.72;10476893;28;20424;-66
2022/10/06 11:30:56;;;;;;;3.50;1.20;;;;;;;39.73;13.71;101576.38;10468816;28;20063;-66
2022/10/06 11:35:59;;;;;;;3.72;0.80;;;;;;;39.10;14.69;101573.34;10469913;28;20052;-66
2022/10/06 11:41:38;;;;;;;3.70;1.10;;;;;;;40.12;13.06;101571.97;10477467;28;20048;-64
2022/10/06 11:46:44;;;;;;;1.80;0.50;;;;;;;39.62;13.86;101568.38;10478033;28;20048;-66
2022/10/06 11:51:45;;;;;;;1.58;0.75;;;;;;;40.72;12.48;101562.47;10468398;28;20058;-66
2022/10/06 11:56:47;;;;;;;3.53;1.27;;;;;;;41.43;11.47;101554.34;10479935;28;21641;-66
2022/10/06 12:01:49;;;;;;;3.45;0.90;;;;;;;41.43;12.51;101551.56;10466533;28;20168;-66
2022/10/06 12:06:56;;;;;;;4.78;0.80;;;;;;;42.47;11.05;101557.97;10476969;28;20186;-66
2022/10/06 12:11:59;;;;;;;4.93;1.02;;;;;;;41.41;11.32;101543.47;10476627;28;21938;-66
2022/10/06 12:17:10;;;;;;;3.05;0.70;;;;;;;41.44;11.69;101539.28;10450419;28;20062;-66
2022/10/06 12:22:36;;;;;;;5.85;1.48;;;;;;;42.88;11.28;101537.59;10449737;28;20049;-67
2022/10/06 12:28:08;;;;;;;5.40;2.33;;;;;;;44.27;10.18;101531.56;10468786;28;20074;-66
2022/10/06 12:33:18;;;;;;;5.00;0.93;;;;;;;44.72;10.01;101521.38;10467561;28;20035;-68
2022/10/06 12:38:41;;;;;;;3.17;1.08;;;;;;;45.78;9.92;101514.69;10468643;28;20043;-67
2022/10/06 12:43:54;;;;;;;4.93;1.10;;;;;;;46.12;10.08;101519.41;10479346;28;20051;-68
2022/10/06 12:49:25;;;;;;;4.43;1.02;;;;;;;46.39;8.68;101515.41;10479694;28;20066;-67
2022/10/06 12:54:34;;;;;;;2.67;0.80;;;;;;;46.20;8.70;101514.97;10452506;28;20098;-66
2022/10/06 12:59:37;;;;;;;3.10;1.13;;;;;;;45.02;9.77;101513.22;10473379;28;20054;-66
2022/10/06 13:04:55;;;;;;;3.33;1.20;;;;;;;45.14;9.58;101507.75;10470667;28;20086;-66
2022/10/06 13:10:12;;;;;;;4.65;0.95;;;;;;;45.25;9.47;101497.88;10468049;28;20044;-67
2022/10/06 13:15:22;;;;;;;3.28;1.23;;;;;;;45.74;9.27;101499.66;10452898;28;20048;-67
2022/10/06 13:20:51;;;;;;;4.15;2.40;;;;;;;44.93;9.17;101488.69;10469624;28;20043;-66
2022/10/06 13:26:00;;;;;;;6.05;1.63;;;;;;;45.12;9.41;101490.41;10432440;28;20047;-66
2022/10/06 13:31:10;;;;;;;4.13;1.13;;;;;;;45.34;9.88;101495.03;10462591;22;20044;-73
2022/10/06 13:36:12;;;;;;;3.05;1.05;;;;;;;45.78;8.87;101486.56;10400136;28;20040;-71
2022/10/06 13:41:19;;;;;;;3.47;1.15;;;;;;;45.61;9.22;101482.66;10379036;28;20050;-73
2022/10/06 13:46:24;;;;;;;5.35;1.30;;;;;;;45.05;9.79;101482.47;10421012;28;20056;-73
2022/10/06 13:51:29;;;;;;;4.53;1.30;;;;;;;45.18;9.16;101486.28;10416690;28;20245;-71
2022/10/06 13:56:36;;;;;;;4.88;1.10;;;;;;;45.14;9.16;101488.91;10411279;28;20451;-73
2022/10/06 14:01:38;;;;;;;5.63;0.90;;;;;;;44.45;8.96;101481.94;10422209;28;20075;-74
2022/10/06 14:06:50;;;;;;;3.50;0.98;;;;;;;43.89;10.02;101480.69;10426025;28;20400;-73
2022/10/06 14:12:00;;;;;;;3.65;0.88;;;;;;;43.01;10.79;101479.13;10421861;28;20052;-73
2022/10/06 14:17:01;;;;;;;2.65;0.70;;;;;;;41.88;11.01;101481.31;10392403;28;20137;-73
2022/10/06 14:22:04;;;;;;;2.67;1.02;;;;;;;40.26;11.69;101466.13;10384265;28;20045;-75
2022/10/06 14:27:06;;;;;;;5.55;1.33;;;;;;;35.83;14.33;101466.41;10375133;28;20052;-73
2022/10/06 14:32:15;;;;;;;4.55;1.00;;;;;;;32.16;18.64;101470.75;10379904;28;20049;-72
2022/10/06 14:37:16;;;;;;;;;;;;;;;29.79;20.73;101470.13;10402046;28;20443;-74
2022/10/06 14:42:21;;;;;;;5.15;1.58;;;;;;;28.52;21.27;101465.16;10384093;28;20339;-74
2022/10/06 14:47:22;;;;;;;5.53;1.35;;;;;;;27.08;23.62;101467.28;10407276;28;20045;-70
2022/10/06 14:52:23;;;;;;;4.40;1.02;;;;;;;26.25;26.62;101459.78;10379749;28;20060;-70
2022/10/06 14:57:25;;;;;;;14.07;1.30;;;;;;;25.45;27.23;101452.75;10377053;28;20048;-69
2022/10/06 15:02:26;;;;;;;5.43;1.10;;;;;;;24.66;28.04;101460.50;10377958;28;20545;-68
2022/10/06 15:12:47;;;;;;;4.90;1.08;;;;;;;23.61;29.45;101448.47;10374924;28;20296;-68
2022/10/06 15:17:49;;;;;;;4.97;1.10;;;;;;;23.20;31.39;101450.63;10376673;28;20534;-69
2022/10/06 15:22:50;;;;;;;3.95;0.88;;;;;;;23.08;29.85;101450.13;10374116;28;20053;-69
2022/10/06 15:33:11;;;;;;;3.55;0.80;;;;;;;21.98;33.72;101447.97;10367095;28;20132;-69
2022/10/06 15:38:12;;;;;;;3.28;1.10;;;;;;;21.84;32.49;101446.78;10369925;28;20410;-69
2022/10/06 15:43:53;;;;;;;5.10;1.02;;;;;;;21.82;31.69;101443.41;10371601;28;20963;-70
2022/10/06 15:48:35;;;;;;;4.25;0.80;;;;;;;21.72;35.00;101449.00;10378474;28;20061;-70
2022/10/06 15:53:36;;;;;;;5.60;1.40;;;;;;;21.38;33.34;101447.22;10378704;28;21603;-70
2022/10/06 15:58:38;;;;;;;3.85;1.10;;;;;;;21.27;34.83;101450.22;10376872;28;20053;-68
2022/10/06 16:03:39;;;;;;;4.35;0.98;;;;;;;21.19;34.06;101454.59;10379528;28;20932;-67
2022/10/06 16:08:41;;;;;;;6.15;1.67;;;;;;;20.98;35.22;101448.78;10381156;28;20068;-67
2022/10/06 16:13:42;;;;;;;5.47;0.95;;;;;;;20.87;36.27;101449.06;10376072;28;20041;-66
2022/10/06 16:18:44;;;;;;;4.60;1.60;;;;;;;20.73;35.41;101445.09;10383475;28;20053;-69
2022/10/06 16:23:45;;;;;;;4.68;1.30;;;;;;;20.70;37.80;101453.53;10377616;28;20717;-68
2022/10/06 16:28:47;;;;;;;3.88;1.08;;;;;;;20.34;36.74;101446.38;10382248;28;20045;-67
2022/10/06 16:33:48;;;;;;;3.63;0.82;;;;;;;20.37;38.29;101447.91;10379527;28;20083;-69
2022/10/06 16:38:51;;;;;;;4.97;1.20;;;;;;;20.11;40.01;101457.69;10377306;28;20076;-69
2022/10/06 16:43:53;;;;;;;6.93;1.55;;;;;;;20.14;38.06;101456.53;10376436;28;20065;-67
2022/10/06 16:48:56;;;;;;;3.58;1.33;;;;;;;19.95;36.98;101457.56;10379602;28;20061;-68
2022/10/06 16:54:00;;;;;;;5.75;2.25;;;;;;;19.82;38.94;101459.84;10367331;28;20053;-68
2022/10/06 16:59:04;;;;;;;5.35;1.52;;;;;;;19.64;40.56;101447.13;10376197;28;20049;-69
2022/10/06 17:04:14;;;;;;;3.80;1.52;;;;;;;19.57;41.61;101470.34;10377129;28;20315;-68
2022/10/06 17:09:17;;;;;;;5.13;1.73;;;;;;;19.40;42.32;101464.78;10380921;28;20515;-68
2022/10/06 17:14:20;;;;;;;7.70;4.32;;;;;;;19.04;41.40;101467.38;10416360;28;20059;-71
2022/10/06 17:19:27;;;;;;;6.70;3.33;;;;;;;18.92;43.69;101473.16;10399776;28;20145;-69
2022/10/06 17:24:30;;;;;;;7.82;3.40;;;;;;;18.78;43.53;101477.13;10416665;28;20527;-68
2022/10/06 17:29:31;;;;;;;7.50;3.00;;;;;;;18.53;43.72;101474.09;10398970;28;20699;-67
2022/10/06 17:34:33;;;;;;;9.30;3.65;;;;;;;18.46;44.91;101483.75;10413435;28;20061;-67
2022/10/06 17:39:34;;;;;;;5.22;3.25;;;;;;;18.41;44.80;101475.25;10442122;28;20057;-68
2022/10/06 17:44:35;;;;;;;8.35;3.45;;;;;;;18.25;45.05;101474.00;10440031;28;20048;-68
2022/10/06 17:49:36;;;;;;;8.88;3.80;;;;;;;18.15;45.28;101481.22;10436876;28;20555;-69
2022/10/06 17:54:40;;;;;;;5.43;2.70;;;;;;;17.97;45.26;101484.66;10416731;28;21522;-69
2022/10/06 17:59:41;;;;;;;11.05;4.10;;;;;;;17.90;45.50;101494.28;10419719;28;20049;-69
2022/10/06 18:04:43;;;;;;;9.13;4.60;;;;;;;17.85;46.34;101485.78;10421677;28;20549;-69
2022/10/06 18:11:31;;;;;;;8.73;4.40;;;;;;;17.77;45.88;101488.31;10448986;28;20159;-70
2022/10/06 18:15:07;;;;;;;7.43;3.60;;;;;;;17.53;46.14;101486.00;10408903;28;20124;-70
2022/10/06 18:20:09;;;;;;;7.20;4.00;;;;;;;17.43;48.39;101475.19;10394629;28;20053;-68
2022/10/06 18:25:15;;;;;;;6.50;4.10;;;;;;;17.43;47.64;101488.66;10411754;28;20627;-68
2022/10/06 18:30:16;;;;;;;10.98;6.68;;;;;;;17.31;48.53;101486.09;10391036;28;20060;-69
2022/10/06 18:35:18;;;;;;;7.82;4.70;;;;;;;17.19;48.93;101481.81;10392361;28;20049;-68
2022/10/06 18:40:39;;;;;;;7.68;4.68;;;;;;;17.16;50.03;101479.41;10382637;28;21529;-70
2022/10/06 18:51:01;;;;;;;7.82;4.07;;;;;;;16.85;49.56;101482.06;10377966;28;20033;-70
2022/10/06 18:56:06;;;;;;;8.07;4.72;;;;;;;16.81;50.75;101480.63;10373301;28;20122;-71
2022/10/06 19:01:07;;;;;;;14.88;5.50;;;;;;;16.74;51.06;101490.25;10377618;28;20052;-70
2022/10/06 19:06:09;;;;;;;10.73;4.95;;;;;;;16.81;51.56;101480.63;10410114;28;20128;-68
2022/10/06 19:16:30;;;;;;;8.77;4.35;;;;;;;16.41;52.09;101487.66;10415630;28;20423;-70
2022/10/06 19:21:31;;;;;;;6.13;4.45;;;;;;;16.43;53.81;101485.66;10410191;28;20052;-71
2022/10/06 19:26:33;;;;;;;8.57;4.63;;;;;;;16.39;52.09;101496.81;10423729;28;20505;-70
2022/10/06 19:31:40;;;;;;;7.25;4.03;;;;;;;16.24;52.28;101502.53;10422345;28;20053;-72
2022/10/06 19:36:48;;;;;;;9.63;5.75;;;;;;;16.08;53.05;101500.28;10422012;28;20777;-73
2022/10/06 19:47:14;;;;;;;7.93;4.47;;;;;;;15.96;54.64;101503.13;10404054;28;20739;-72
2022/10/06 19:52:15;;;;;;;5.45;3.63;;;;;;;15.80;53.83;101507.09;10427216;28;20052;-71
2022/10/06 19:57:17;;;;;;;6.55;3.50;;;;;;;15.79;53.88;101513.44;10384372;28;20577;-73
2022/10/06 20:02:18;;;;;;;7.18;3.80;;;;;;;15.59;54.09;101514.22;10344455;28;20061;-71
2022/10/06 20:07:24;;;;;;;8.57;4.18;;;;;;;15.51;55.51;101510.31;10372118;28;20057;-70
2022/10/06 20:12:27;;;;;;;10.43;5.07;;;;;;;15.45;54.83;101512.66;10411027;28;20060;-70
2022/10/06 20:17:28;;;;;;;8.85;4.18;;;;;;;15.33;55.56;101520.72;10409096;28;20049;-69
2022/10/06 20:22:32;;;;;;;8.00;4.25;;;;;;;15.43;55.32;101515.44;10407191;28;20226;-71
2022/10/06 20:27:34;;;;;;;9.63;4.65;;;;;;;15.30;55.72;101518.28;10412694;28;20071;-73
2022/10/06 20:32:35;;;;;;;8.85;4.00;;;;;;;15.05;56.43;101516.69;10358173;28;20045;-70
2022/10/06 20:37:40;;;;;;;11.82;4.70;;;;;;;14.88;56.75;101526.09;10399137;28;20040;-71
2022/10/06 20:42:47;;;;;;;6.00;3.20;;;;;;;14.91;57.55;101514.28;10404509;28;20048;-69
2022/10/06 20:47:49;;;;;;;7.05;3.80;;;;;;;14.86;56.96;101501.19;10415658;28;20131;-71
2022/10/06 20:52:52;;;;;;;7.45;3.30;;;;;;;14.67;57.71;101508.00;10362746;28;20056;-70
2022/10/06 20:57:53;;;;;;;9.23;3.15;;;;;;;14.36;60.13;101504.16;10434855;28;20057;-71
2022/10/06 21:02:55;;;;;;;8.77;3.90;;;;;;;14.33;59.51;101502.53;10447292;28;20139;-70
2022/10/06 21:07:56;;;;;;;8.88;3.85;;;;;;;14.36;59.13;101505.97;10442910;28;20074;-69
2022/10/06 21:12:58;;;;;;;7.10;3.13;;;;;;;14.32;59.53;101497.31;10374924;28;20362;-69
2022/10/06 21:18:00;;;;;;;11.25;4.53;;;;;;;14.30;59.68;101494.75;10394095;28;20126;-70
2022/10/06 21:23:02;;;;;;;7.32;4.18;;;;;;;14.27;59.99;101491.47;10384230;28;20135;-68
2022/10/06 21:28:03;;;;;;;7.95;4.38;;;;;;;14.18;60.64;101500.19;10382176;28;20057;-71
2022/10/06 21:33:05;;;;;;;8.27;3.88;;;;;;;14.08;61.29;101490.19;10403687;28;20055;-71
2022/10/06 21:38:10;;;;;;;7.68;3.83;;;;;;;13.97;61.44;101492.81;10418254;28;20055;-69
2022/10/06 21:43:11;;;;;;;5.57;3.20;;;;;;;13.85;63.03;101493.75;10398272;28;20044;-70
2022/10/06 21:48:12;;;;;;;6.45;3.80;;;;;;;13.85;62.25;101494.59;10406427;28;20045;-70
2022/10/06 21:53:14;;;;;;;11.23;4.00;;;;;;;13.82;62.73;101493.97;10399061;28;20049;-71
2022/10/06 21:58:15;;;;;;;6.68;3.50;;;;;;;13.77;62.94;101491.63;10403074;28;20626;-70
2022/10/06 22:03:17;;;;;;;7.57;3.40;;;;;;;13.65;63.25;101485.38;10396134;28;20483;-71
2022/10/06 22:08:18;;;;;;;14.10;4.90;;;;;;;13.47;63.88;101476.03;10425609;28;20048;-71
2022/10/06 22:13:19;;;;;;;7.88;3.47;;;;;;;13.41;63.99;101470.16;10411398;28;20052;-70
2022/10/06 22:18:21;;;;;;;7.50;3.70;;;;;;;13.49;64.65;101471.41;10401053;28;20079;-70
2022/10/06 22:23:23;;;;;;;8.73;3.92;;;;;;;13.48;64.33;101464.34;10378551;28;20594;-70
2022/10/06 22:28:24;;;;;;;9.95;3.78;;;;;;;13.41;64.35;101472.84;10402813;28;20045;-70
2022/10/06 22:33:25;;;;;;;10.63;3.53;;;;;;;13.39;64.13;101465.88;10403257;28;20064;-70
2022/10/06 22:38:27;;;;;;;9.65;3.63;;;;;;;13.31;64.35;101470.91;10412025;28;20053;-71
2022/10/06 22:43:28;;;;;;;7.63;3.70;;;;;;;13.19;64.86;101472.66;10405493;28;20106;-69
2022/10/06 22:48:30;;;;;;;9.27;4.35;;;;;;;13.16;65.24;101465.69;10399799;28;20057;-69
2022/10/06 22:53:32;;;;;;;8.20;3.50;;;;;;;13.18;65.53;101454.91;10400237;28;20060;-69
2022/10/06 22:58:33;;;;;;;4.80;3.88;;;;;;;13.16;65.38;101446.13;10407998;28;20064;-71
2022/10/06 23:03:35;;;;;;;7.28;3.47;;;;;;;13.20;64.81;101444.97;10408359;28;20053;-71
2022/10/06 23:08:37;;;;;;;7.40;3.45;;;;;;;13.00;64.90;101444.59;10398552;28;20356;-70
2022/10/06 23:13:39;;;;;;;8.07;3.50;;;;;;;12.99;65.32;101442.03;10401045;28;20637;-71
2022/10/06 23:18:41;;;;;;;8.73;3.80;;;;;;;12.81;66.10;101438.84;10393549;28;20053;-70
2022/10/06 23:23:44;;;;;;;5.55;3.28;;;;;;;12.80;66.42;101431.78;10398072;28;20049;-70
2022/10/06 23:28:50;;;;;;;8.32;3.80;;;;;;;12.77;66.35;101426.66;10399899;28;20080;-70
2022/10/06 23:33:52;;;;;;;9.27;3.35;;;;;;;12.67;66.50;101427.31;10398101;28;20149;-69
2022/10/06 23:38:54;;;;;;;7.25;3.60;;;;;;;12.69;66.78;101421.88;10395730;28;20060;-69
2022/10/06 23:43:55;;;;;;;8.85;3.25;;;;;;;12.57;67.09;101425.41;10401189;28;20038;-71
2022/10/06 23:48:57;;;;;;;6.20;3.33;;;;;;;12.71;66.71;101428.78;10395565;28;20048;-69
2022/10/06 23:53:58;;;;;;;7.00;3.65;;;;;;;12.56;66.58;101413.84;10413178;28;21196;-73
2022/10/06 23:58:59;;;;;;;6.47;3.47;;;;;;;12.47;67.30;101412.69;10482940;28;20032;-73
